Judi M. — WCX8376 — position and weather

sailwx.info

Track history (hours):
 
Tides and Currents Weather Stations Pressure Air Temp Water Temp Dewpoint Dewpoint Depression Visibility Wind Speed Wind Dir Waves Ship Positions

Judi M.

Owner: MANKE TUG & BARGE CO INC, SHELTON, WA. More information available from US FCC via Universal Licensing System and Coast Guard Vessel Documentation Center.

Last reported at 2016-Aug-28 04:34 UTC. Time now 2016-Aug-28 05:14 UTC.
Position N 47°55' W 122°30'.

Length 29 m; draft 4 m.

Type: Tow > 200 m length. MMSI: 366740920.

Date/timePositionNaut miles runAvg speedWind from/ knotsBaromVisibWave heightAir tempDewpointWater temp
2016-Aug-28 04:34N 47°55' W 122°30'5 5.2
2016-Aug-28 03:33N 47°58' W 122°36'6 4.6
2016-Aug-28 02:18N 48°03' W 122°39'3 4.2
2016-Aug-28 01:30N 48°07' W 122°41'5 1.2
2016-Aug-27 21:32N 48°06' W 122°48'0 0.0
2016-Aug-27 18:05N 48°06' W 122°48'0 0.0
2016-Aug-27 16:27N 48°06' W 122°48'0 0.0
2016-Aug-27 14:22N 48°06' W 122°48'0 0.0
2016-Aug-27 13:05N 48°06' W 122°48'0 0.0
2016-Aug-27 12:33N 48°06' W 122°48'6 5.2
2016-Aug-27 11:27N 48°06' W 122°39'910.2
2016-Aug-27 10:34N 47°58' W 122°34'8 7.9
2016-Aug-27 09:34N 47°52' W 122°27'7 7.5
2016-Aug-27 08:34N 47°44' W 122°26'6 6.5
2016-Aug-27 07:33N 47°38' W 122°25'4 3.9
2016-Aug-27 06:34N 47°34' W 122°22'0 0.0
2016-Aug-27 04:33N 47°34' W 122°22'0 0.0
2016-Aug-27 03:33N 47°34' W 122°22'0 0.0
2016-Aug-27 02:33N 47°34' W 122°22'0 0.0
2016-Aug-27 01:33N 47°34' W 122°22'0 0.0
2016-Aug-27 00:34N 47°34' W 122°22'0 0.0
2016-Aug-26 23:33N 47°34' W 122°22'0 0.0
2016-Aug-26 22:33N 47°34' W 122°22'0 0.0
2016-Aug-26 21:33N 47°34' W 122°22'0 0.0
2016-Aug-26 20:33N 47°34' W 122°22'0 0.0
2016-Aug-26 19:34N 47°34' W 122°22'0 0.0
2016-Aug-26 18:33N 47°34' W 122°22'0 0.0
2016-Aug-26 17:33N 47°34' W 122°22'0 0.0
2016-Aug-26 16:33N 47°34' W 122°22'0 0.0
2016-Aug-26 15:33N 47°34' W 122°22'0 0.0
2016-Aug-26 14:33N 47°34' W 122°22'0 0.0
2016-Aug-26 13:33N 47°34' W 122°22'0 0.0
2016-Aug-26 12:33N 47°34' W 122°22'0 0.0
2016-Aug-26 11:33N 47°34' W 122°22'0 0.0
2016-Aug-26 10:34N 47°34' W 122°22'0 0.0
2016-Aug-26 09:33N 47°34' W 122°22'0 0.0
2016-Aug-26 08:33N 47°34' W 122°22'0 0.0
2016-Aug-26 07:34N 47°34' W 122°22'0 0.0
2016-Aug-26 06:33N 47°34' W 122°22'0 0.0
2016-Aug-26 04:33N 47°34' W 122°22'0 0.0
2016-Aug-26 03:33N 47°34' W 122°22'0 0.0
2016-Aug-26 02:33N 47°34' W 122°22'0 0.0
2016-Aug-26 01:33N 47°34' W 122°22'0 0.0
2016-Aug-26 00:33N 47°34' W 122°22'0 0.0
2016-Aug-25 23:33N 47°34' W 122°22'0 0.0
2016-Aug-25 22:33N 47°34' W 122°22'0 0.0
2016-Aug-25 21:33N 47°34' W 122°22'0 0.0
2016-Aug-25 20:33N 47°34' W 122°22'0 0.0
2016-Aug-25 19:33N 47°34' W 122°22'0 0.0
2016-Aug-25 18:34N 47°34' W 122°22'0 0.0
2016-Aug-25 17:33N 47°34' W 122°22'0 0.0
2016-Aug-25 16:33N 47°34' W 122°22'0 0.0
2016-Aug-25 15:33N 47°34' W 122°22'0 0.0
2016-Aug-25 14:33N 47°34' W 122°22'0 0.0
2016-Aug-25 13:34N 47°34' W 122°22'0 0.0
2016-Aug-25 12:33N 47°34' W 122°22'0 0.0
2016-Aug-25 11:33N 47°34' W 122°22'0 0.0
2016-Aug-25 10:33N 47°34' W 122°22'0 0.0
2016-Aug-25 09:33N 47°34' W 122°22'0 0.0
2016-Aug-25 08:33N 47°34' W 122°22'0 0.0
2016-Aug-25 07:33N 47°34' W 122°22'0 0.0
2016-Aug-25 06:33N 47°34' W 122°22'0 0.0
2016-Aug-25 04:33N 47°34' W 122°22'0 0.0
2016-Aug-25 03:34N 47°34' W 122°22'0 0.0
2016-Aug-25 02:34N 47°34' W 122°22'0 0.0
2016-Aug-25 01:33N 47°34' W 122°22'0 0.0
2016-Aug-25 00:33N 47°34' W 122°22'0 0.0
2016-Aug-24 23:33N 47°34' W 122°22'0 0.0
2016-Aug-24 22:33N 47°34' W 122°22'0 0.0
2016-Aug-24 21:33N 47°34' W 122°22'0 0.0
2016-Aug-24 20:33N 47°34' W 122°22'0 0.0
2016-Aug-24 19:33N 47°34' W 122°22'0 0.0
2016-Aug-24 18:33N 47°34' W 122°22'0 0.0
2016-Aug-24 17:33N 47°34' W 122°22'0 0.0
2016-Aug-24 16:33N 47°34' W 122°22'0 0.0
2016-Aug-24 15:33N 47°34' W 122°22'0 0.0
2016-Aug-24 14:33N 47°34' W 122°22'0 0.0
2016-Aug-24 13:33N 47°34' W 122°22'0 0.0
2016-Aug-24 12:33N 47°34' W 122°22'0 0.0
2016-Aug-24 11:33N 47°34' W 122°22'0 0.0
2016-Aug-24 10:34N 47°34' W 122°22'0 0.0
2016-Aug-24 09:33N 47°34' W 122°22'0 0.0
2016-Aug-24 08:33N 47°34' W 122°22'0 0.0
2016-Aug-24 07:33N 47°34' W 122°22'0 0.0
2016-Aug-24 06:33N 47°34' W 122°22'0 0.0
2016-Aug-24 04:33N 47°34' W 122°22'0 0.0
2016-Aug-24 03:33N 47°34' W 122°22'0 0.0
2016-Aug-24 02:33N 47°34' W 122°22'0 0.0
2016-Aug-24 01:33N 47°34' W 122°22'0 0.0
2016-Aug-24 00:33N 47°34' W 122°22'0 0.0
2016-Aug-23 23:33N 47°34' W 122°22'0 0.0
2016-Aug-23 22:33N 47°34' W 122°22'0 0.0
2016-Aug-23 21:33N 47°34' W 122°22'0 0.0
2016-Aug-23 20:33N 47°34' W 122°22'0 0.0
2016-Aug-23 19:33N 47°34' W 122°22'0 0.0
2016-Aug-23 18:33N 47°34' W 122°22'0 0.0
2016-Aug-23 17:33N 47°34' W 122°22'0 0.0
2016-Aug-23 16:33N 47°34' W 122°22'0 0.0
2016-Aug-23 15:33N 47°34' W 122°22'0 0.0
2016-Aug-23 14:33N 47°34' W 122°22'0 0.0
2016-Aug-23 13:33N 47°34' W 122°22'0 0.0
2016-Aug-23 12:33N 47°34' W 122°22'0 0.0
2016-Aug-23 11:33N 47°34' W 122°22'0 0.0
2016-Aug-23 10:33N 47°34' W 122°22'0 0.0
2016-Aug-23 09:33N 47°34' W 122°22'0 0.0
2016-Aug-23 08:33N 47°34' W 122°22'0 0.0
2016-Aug-23 07:33N 47°34' W 122°22'0 0.0
2016-Aug-23 06:33N 47°34' W 122°22'0 0.0
2016-Aug-23 05:33N 47°34' W 122°22'0 0.0
2016-Aug-23 04:33N 47°34' W 122°22'0 0.0
2016-Aug-23 03:33N 47°34' W 122°22'0 0.0
2016-Aug-23 02:33N 47°34' W 122°22'0 0.0
2016-Aug-23 01:33N 47°34' W 122°22'0 0.0
2016-Aug-23 00:33N 47°34' W 122°22'0 0.0
2016-Aug-22 23:33N 47°34' W 122°22'0 0.0
2016-Aug-22 22:33N 47°34' W 122°22'0 0.0
2016-Aug-22 21:33N 47°34' W 122°22'0 0.0
2016-Aug-22 20:33N 47°34' W 122°22'0 0.0
2016-Aug-22 07:21N 47°34' W 122°22'0 0.2
2016-Aug-22 06:34N 47°35' W 122°22'4 3.8
2016-Aug-22 05:33N 47°37' W 122°26'5 4.8
2016-Aug-22 04:33N 47°41' W 122°28'5 5.5
2016-Aug-22 03:33N 47°47' W 122°28'6 6.1
2016-Aug-22 02:34N 47°53' W 122°30'7 6.7
2016-Aug-22 01:34N 47°58' W 122°36'11 5.0
2016-Aug-21 23:26N 48°06' W 122°48'0 0.0
2016-Aug-21 14:27N 48°06' W 122°48'1 1.2
2016-Aug-21 13:30N 48°05' W 122°46'5 4.8
2016-Aug-21 12:30N 48°03' W 122°40'5 5.6
2016-Aug-21 11:32N 47°59' W 122°35'6 6.0
2016-Aug-21 10:33N 47°55' W 122°29'7 7.2
2016-Aug-21 09:34N 47°48' W 122°26'7 7.4
2016-Aug-21 08:33N 47°40' W 122°27'7 6.8
2016-Aug-21 07:33N 47°35' W 122°22'0 0.2
2016-Aug-21 06:33N 47°34' W 122°22'  
Track history (hours):
 
Tides and Currents Weather Stations Pressure Air Temp Water Temp Dewpoint Dewpoint Depression Visibility Wind Speed Wind Dir Waves Ship Positions

Judi M.

Owner: MANKE TUG & BARGE CO INC, SHELTON, WA. More information available from US FCC via Universal Licensing System and Coast Guard Vessel Documentation Center.

Last reported at 2016-Aug-28 04:34 UTC. Time now 2016-Aug-28 05:14 UTC.
Position N 47°55' W 122°30'.

Length 29 m; draft 4 m.

Type: Tow > 200 m length. MMSI: 366740920.

Date/timePositionNaut miles runAvg speedWind from/ knotsBaromVisibWave heightAir tempDewpointWater temp
2016-Aug-28 04:34N 47°55' W 122°30'5 5.2
2016-Aug-28 03:33N 47°58' W 122°36'6 4.6
2016-Aug-28 02:18N 48°03' W 122°39'3 4.2
2016-Aug-28 01:30N 48°07' W 122°41'5 1.2
2016-Aug-27 21:32N 48°06' W 122°48'0 0.0
2016-Aug-27 18:05N 48°06' W 122°48'0 0.0
2016-Aug-27 16:27N 48°06' W 122°48'0 0.0
2016-Aug-27 14:22N 48°06' W 122°48'0 0.0
2016-Aug-27 13:05N 48°06' W 122°48'0 0.0
2016-Aug-27 12:33N 48°06' W 122°48'6 5.2
2016-Aug-27 11:27N 48°06' W 122°39'910.2
2016-Aug-27 10:34N 47°58' W 122°34'8 7.9
2016-Aug-27 09:34N 47°52' W 122°27'7 7.5
2016-Aug-27 08:34N 47°44' W 122°26'6 6.5
2016-Aug-27 07:33N 47°38' W 122°25'4 3.9
2016-Aug-27 06:34N 47°34' W 122°22'0 0.0
2016-Aug-27 04:33N 47°34' W 122°22'0 0.0
2016-Aug-27 03:33N 47°34' W 122°22'0 0.0
2016-Aug-27 02:33N 47°34' W 122°22'0 0.0
2016-Aug-27 01:33N 47°34' W 122°22'0 0.0
2016-Aug-27 00:34N 47°34' W 122°22'0 0.0
2016-Aug-26 23:33N 47°34' W 122°22'0 0.0
2016-Aug-26 22:33N 47°34' W 122°22'0 0.0
2016-Aug-26 21:33N 47°34' W 122°22'0 0.0
2016-Aug-26 20:33N 47°34' W 122°22'0 0.0
2016-Aug-26 19:34N 47°34' W 122°22'0 0.0
2016-Aug-26 18:33N 47°34' W 122°22'0 0.0
2016-Aug-26 17:33N 47°34' W 122°22'0 0.0
2016-Aug-26 16:33N 47°34' W 122°22'0 0.0
2016-Aug-26 15:33N 47°34' W 122°22'0 0.0
2016-Aug-26 14:33N 47°34' W 122°22'0 0.0
2016-Aug-26 13:33N 47°34' W 122°22'0 0.0
2016-Aug-26 12:33N 47°34' W 122°22'0 0.0
2016-Aug-26 11:33N 47°34' W 122°22'0 0.0
2016-Aug-26 10:34N 47°34' W 122°22'0 0.0
2016-Aug-26 09:33N 47°34' W 122°22'0 0.0
2016-Aug-26 08:33N 47°34' W 122°22'0 0.0
2016-Aug-26 07:34N 47°34' W 122°22'0 0.0
2016-Aug-26 06:33N 47°34' W 122°22'0 0.0
2016-Aug-26 04:33N 47°34' W 122°22'0 0.0
2016-Aug-26 03:33N 47°34' W 122°22'0 0.0
2016-Aug-26 02:33N 47°34' W 122°22'0 0.0
2016-Aug-26 01:33N 47°34' W 122°22'0 0.0
2016-Aug-26 00:33N 47°34' W 122°22'0 0.0
2016-Aug-25 23:33N 47°34' W 122°22'0 0.0
2016-Aug-25 22:33N 47°34' W 122°22'0 0.0
2016-Aug-25 21:33N 47°34' W 122°22'0 0.0
2016-Aug-25 20:33N 47°34' W 122°22'0 0.0
2016-Aug-25 19:33N 47°34' W 122°22'0 0.0
2016-Aug-25 18:34N 47°34' W 122°22'0 0.0
2016-Aug-25 17:33N 47°34' W 122°22'0 0.0
2016-Aug-25 16:33N 47°34' W 122°22'0 0.0
2016-Aug-25 15:33N 47°34' W 122°22'0 0.0
2016-Aug-25 14:33N 47°34' W 122°22'0 0.0
2016-Aug-25 13:34N 47°34' W 122°22'0 0.0
2016-Aug-25 12:33N 47°34' W 122°22'0 0.0
2016-Aug-25 11:33N 47°34' W 122°22'0 0.0
2016-Aug-25 10:33N 47°34' W 122°22'0 0.0
2016-Aug-25 09:33N 47°34' W 122°22'0 0.0
2016-Aug-25 08:33N 47°34' W 122°22'0 0.0
2016-Aug-25 07:33N 47°34' W 122°22'0 0.0
2016-Aug-25 06:33N 47°34' W 122°22'0 0.0
2016-Aug-25 04:33N 47°34' W 122°22'0 0.0
2016-Aug-25 03:34N 47°34' W 122°22'0 0.0
2016-Aug-25 02:34N 47°34' W 122°22'0 0.0
2016-Aug-25 01:33N 47°34' W 122°22'0 0.0
2016-Aug-25 00:33N 47°34' W 122°22'0 0.0
2016-Aug-24 23:33N 47°34' W 122°22'0 0.0
2016-Aug-24 22:33N 47°34' W 122°22'0 0.0
2016-Aug-24 21:33N 47°34' W 122°22'0 0.0
2016-Aug-24 20:33N 47°34' W 122°22'0 0.0
2016-Aug-24 19:33N 47°34' W 122°22'0 0.0
2016-Aug-24 18:33N 47°34' W 122°22'0 0.0
2016-Aug-24 17:33N 47°34' W 122°22'0 0.0
2016-Aug-24 16:33N 47°34' W 122°22'0 0.0
2016-Aug-24 15:33N 47°34' W 122°22'0 0.0
2016-Aug-24 14:33N 47°34' W 122°22'0 0.0
2016-Aug-24 13:33N 47°34' W 122°22'0 0.0
2016-Aug-24 12:33N 47°34' W 122°22'0 0.0
2016-Aug-24 11:33N 47°34' W 122°22'0 0.0
2016-Aug-24 10:34N 47°34' W 122°22'0 0.0
2016-Aug-24 09:33N 47°34' W 122°22'0 0.0
2016-Aug-24 08:33N 47°34' W 122°22'0 0.0
2016-Aug-24 07:33N 47°34' W 122°22'0 0.0
2016-Aug-24 06:33N 47°34' W 122°22'0 0.0
2016-Aug-24 04:33N 47°34' W 122°22'0 0.0
2016-Aug-24 03:33N 47°34' W 122°22'0 0.0
2016-Aug-24 02:33N 47°34' W 122°22'0 0.0
2016-Aug-24 01:33N 47°34' W 122°22'0 0.0
2016-Aug-24 00:33N 47°34' W 122°22'0 0.0
2016-Aug-23 23:33N 47°34' W 122°22'0 0.0
2016-Aug-23 22:33N 47°34' W 122°22'0 0.0
2016-Aug-23 21:33N 47°34' W 122°22'0 0.0
2016-Aug-23 20:33N 47°34' W 122°22'0 0.0
2016-Aug-23 19:33N 47°34' W 122°22'0 0.0
2016-Aug-23 18:33N 47°34' W 122°22'0 0.0
2016-Aug-23 17:33N 47°34' W 122°22'0 0.0
2016-Aug-23 16:33N 47°34' W 122°22'0 0.0
2016-Aug-23 15:33N 47°34' W 122°22'0 0.0
2016-Aug-23 14:33N 47°34' W 122°22'0 0.0
2016-Aug-23 13:33N 47°34' W 122°22'0 0.0
2016-Aug-23 12:33N 47°34' W 122°22'0 0.0
2016-Aug-23 11:33N 47°34' W 122°22'0 0.0
2016-Aug-23 10:33N 47°34' W 122°22'0 0.0
2016-Aug-23 09:33N 47°34' W 122°22'0 0.0
2016-Aug-23 08:33N 47°34' W 122°22'0 0.0
2016-Aug-23 07:33N 47°34' W 122°22'0 0.0
2016-Aug-23 06:33N 47°34' W 122°22'0 0.0
2016-Aug-23 05:33N 47°34' W 122°22'0 0.0
2016-Aug-23 04:33N 47°34' W 122°22'0 0.0
2016-Aug-23 03:33N 47°34' W 122°22'0 0.0
2016-Aug-23 02:33N 47°34' W 122°22'0 0.0
2016-Aug-23 01:33N 47°34' W 122°22'0 0.0
2016-Aug-23 00:33N 47°34' W 122°22'0 0.0
2016-Aug-22 23:33N 47°34' W 122°22'0 0.0
2016-Aug-22 22:33N 47°34' W 122°22'0 0.0
2016-Aug-22 21:33N 47°34' W 122°22'0 0.0
2016-Aug-22 20:33N 47°34' W 122°22'0 0.0
2016-Aug-22 07:21N 47°34' W 122°22'0 0.2
2016-Aug-22 06:34N 47°35' W 122°22'4 3.8
2016-Aug-22 05:33N 47°37' W 122°26'5 4.8
2016-Aug-22 04:33N 47°41' W 122°28'5 5.5
2016-Aug-22 03:33N 47°47' W 122°28'6 6.1
2016-Aug-22 02:34N 47°53' W 122°30'7 6.7
2016-Aug-22 01:34N 47°58' W 122°36'11 5.0
2016-Aug-21 23:26N 48°06' W 122°48'0 0.0
2016-Aug-21 14:27N 48°06' W 122°48'1 1.2
2016-Aug-21 13:30N 48°05' W 122°46'5 4.8
2016-Aug-21 12:30N 48°03' W 122°40'5 5.6
2016-Aug-21 11:32N 47°59' W 122°35'6 6.0
2016-Aug-21 10:33N 47°55' W 122°29'7 7.2
2016-Aug-21 09:34N 47°48' W 122°26'7 7.4
2016-Aug-21 08:33N 47°40' W 122°27'7 6.8
2016-Aug-21 07:33N 47°35' W 122°22'0 0.2
2016-Aug-21 06:33N 47°34' W 122°22'  

Dump ship's entire track history